Terminal Aerodrome Forecast
Issued by NWS Billings, MT

Home | Current Version | Previous Version | Text Only | Print | Product List | Glossary On
Versions: 1 2 3 4 5 6 7 8 9 10 11 12 13 14 15 16 17 18 19 20 21 22 23 24 25 26 27 28 29 30
000
FTUS45 KBYZ 250536
TAFBIL
TAF
KBIL 250536Z 2506/2606 04014KT 1/2SM SN OVC002
     FM251000 02014KT 2SM -SN OVC002
     FM251300 02010KT 1SM -SN OVC002
     FM251800 01010KT 2SM -SN OVC005
     FM252200 05006KT P6SM OVC005
     FM260200 23006KT P6SM VCFG OVC003=

USA.gov is the U.S. government's official web portal to all federal, state and local government web resources and services.